createdAt,value
2024-01-10T00:00:41.643Z,10.05
2024-01-10T00:03:08.722Z,16.33
2024-01-10T00:05:35.765Z,19.30
2024-01-10T00:08:02.898Z,13.32
2024-01-10T00:10:30.670Z,10.98
2024-01-10T00:12:57.699Z,16.00
2024-01-10T00:15:24.771Z,14.77
2024-01-10T00:17:51.853Z,17.23
2024-01-10T00:20:18.992Z,16.50
2024-01-10T00:22:46.684Z,25.60
2024-01-10T00:25:13.921Z,17.45
2024-01-10T00:27:40.963Z,18.17
2024-01-10T00:30:08.656Z,21.52
2024-01-10T00:32:35.854Z,19.75
2024-01-10T00:35:04.037Z,18.65
2024-01-10T00:37:31.425Z,14.30
2024-01-10T00:39:58.489Z,16.67
2024-01-10T00:42:25.565Z,16.50
2024-01-10T00:44:52.581Z,14.30
2024-01-10T00:47:19.709Z,13.88
2024-01-10T00:49:46.980Z,17.55
2024-01-10T00:52:14.164Z,18.30
2024-01-10T00:54:41.317Z,14.20
2024-01-10T00:57:08.404Z,19.13
2024-01-10T00:59:35.494Z,12.68
2024-01-10T01:02:02.655Z,15.63
2024-01-10T01:04:29.821Z,14.02
2024-01-10T01:06:56.898Z,15.30
2024-01-10T01:09:23.980Z,17.63
2024-01-10T01:11:51.147Z,13.52
2024-01-10T01:14:18.275Z,14.32
2024-01-10T01:16:45.423Z,13.60
2024-01-10T01:19:12.572Z,14.45
2024-01-10T01:21:39.854Z,18.33
2024-01-10T01:24:06.970Z,14.10
2024-01-10T01:26:33.995Z,16.33
2024-01-10T01:29:01.103Z,12.80
2024-01-10T01:31:28.156Z,25.42
2024-01-10T01:33:55.214Z,12.60
2024-01-10T01:36:22.268Z,15.38
2024-01-10T01:38:49.309Z,16.52
2024-01-10T01:41:16.970Z,15.00
2024-01-10T01:43:44.544Z,17.05
2024-01-10T01:46:11.884Z,18.88
2024-01-10T01:48:39.521Z,18.27
2024-01-10T01:51:08.430Z,16.75
2024-01-10T01:53:39.739Z,15.93
2024-01-10T01:56:08.787Z,14.60
2024-01-10T01:58:38.160Z,13.55
2024-01-10T02:01:09.035Z,14.20
2024-01-10T02:03:36.361Z,14.35
2024-01-10T02:06:06.450Z,17.50
2024-01-10T02:08:34.698Z,16.88
2024-01-10T02:11:02.997Z,13.05
2024-01-10T02:13:30.343Z,18.13
2024-01-10T02:15:57.596Z,11.50
2024-01-10T02:18:24.734Z,16.13
2024-01-10T02:20:53.704Z,12.02
2024-01-10T02:23:21.316Z,10.90
2024-01-10T02:25:48.479Z,13.88
2024-01-10T02:28:15.593Z,19.67
2024-01-10T02:30:42.727Z,15.63
2024-01-10T02:33:10.635Z,22.67
2024-01-10T02:35:37.721Z,14.95
2024-01-10T02:38:05.257Z,12.18
2024-01-10T02:40:32.339Z,14.60
2024-01-10T02:42:59.476Z,17.35
2024-01-10T02:45:26.546Z,14.38
2024-01-10T02:47:54.254Z,12.90
2024-01-10T02:50:21.549Z,14.43
2024-01-10T02:52:48.646Z,12.38
2024-01-10T02:55:15.786Z,13.23
2024-01-10T02:57:42.970Z,14.48
2024-01-10T03:00:10.840Z,14.43
2024-01-10T03:02:37.920Z,10.35
2024-01-10T03:05:05.443Z,16.90
2024-01-10T03:07:32.542Z,16.27
2024-01-10T03:09:59.640Z,21.63
2024-01-10T03:12:26.704Z,11.15
2024-01-10T03:14:54.471Z,11.18
2024-01-10T03:17:21.828Z,14.27
2024-01-10T03:19:49.053Z,14.27
2024-01-10T03:22:16.117Z,17.65
2024-01-10T03:24:43.350Z,16.98
2024-01-10T03:27:10.371Z,12.95
2024-01-10T03:29:37.434Z,16.42
2024-01-10T03:32:04.838Z,15.65
2024-01-10T03:34:31.889Z,13.43
2024-01-10T03:36:59.307Z,11.98
2024-01-10T03:39:26.456Z,17.77
2024-01-10T03:41:53.501Z,12.60
2024-01-10T03:44:20.597Z,12.13
2024-01-10T03:46:47.732Z,12.18
2024-01-10T03:49:14.901Z,21.30
2024-01-10T03:51:42.891Z,23.65
2024-01-10T03:54:10.278Z,16.38
2024-01-10T03:56:37.402Z,18.45
2024-01-10T03:59:04.579Z,10.23
2024-01-10T04:01:31.666Z,15.45
2024-01-10T04:03:59.288Z,17.70
2024-01-10T04:06:26.519Z,11.55
2024-01-10T04:08:53.605Z,28.40
2024-01-10T04:11:20.780Z,17.92
2024-01-10T04:13:47.877Z,13.38
2024-01-10T04:16:14.954Z,16.77
2024-01-10T04:18:42.232Z,15.75
2024-01-10T04:21:09.891Z,15.38
2024-01-10T04:23:37.219Z,13.05
2024-01-10T04:26:04.699Z,16.73
2024-01-10T04:28:31.841Z,17.58
2024-01-10T04:30:59.157Z,13.43
2024-01-10T04:33:26.421Z,13.52
2024-01-10T04:35:53.961Z,16.42
2024-01-10T04:38:21.653Z,19.90
2024-01-10T04:40:48.786Z,13.02
2024-01-10T04:43:15.869Z,16.20
2024-01-10T04:45:42.938Z,16.30
2024-01-10T04:48:10.494Z,13.70
2024-01-10T04:50:37.751Z,14.35
2024-01-10T04:53:05.054Z,16.55
2024-01-10T04:55:32.200Z,18.40
2024-01-10T04:58:00.699Z,13.60
2024-01-10T05:00:28.678Z,25.35
2024-01-10T05:02:56.513Z,13.77
2024-01-10T05:05:25.301Z,17.63
2024-01-10T05:07:52.747Z,11.65
2024-01-10T05:10:20.627Z,12.20
2024-01-10T05:12:47.673Z,17.08
2024-01-10T05:15:14.722Z,16.38
2024-01-10T05:17:41.813Z,17.23
2024-01-10T05:20:09.470Z,22.30
2024-01-10T05:22:36.903Z,14.15
2024-01-10T05:25:05.532Z,13.27
2024-01-10T05:27:32.857Z,16.52
2024-01-10T05:30:00.646Z,18.33
2024-01-10T05:32:27.924Z,12.63
2024-01-10T05:34:55.585Z,19.63
2024-01-10T05:37:23.185Z,14.90
2024-01-10T05:39:50.670Z,17.27
2024-01-10T05:42:17.991Z,21.42
2024-01-10T05:44:45.063Z,17.05
2024-01-10T05:47:12.163Z,36.70
2024-01-10T05:49:39.372Z,17.10
2024-01-10T05:52:06.494Z,14.15
2024-01-10T05:54:33.551Z,25.50
2024-01-10T05:57:01.976Z,20.85
2024-01-10T05:59:30.162Z,23.27
2024-01-10T06:01:59.957Z,19.92
2024-01-10T06:04:28.955Z,18.10
2024-01-10T06:06:56.103Z,18.67
2024-01-10T06:09:23.523Z,26.83
2024-01-10T06:11:50.719Z,26.08
2024-01-10T06:14:18.200Z,25.85
2024-01-10T06:16:46.209Z,25.58
2024-01-10T06:19:13.431Z,16.25
2024-01-10T06:21:40.538Z,22.63
2024-01-10T06:24:09.070Z,28.23
2024-01-10T06:26:36.219Z,16.63
2024-01-10T06:29:03.459Z,15.50
2024-01-10T06:31:30.610Z,19.05
2024-01-10T06:33:58.112Z,26.65
2024-01-10T06:36:25.327Z,18.38
2024-01-10T06:38:52.468Z,19.38
2024-01-10T06:41:25.314Z,19.58
2024-01-10T06:43:53.608Z,22.35
2024-01-10T06:46:22.055Z,26.13
2024-01-10T06:48:49.265Z,24.98
2024-01-10T06:51:17.879Z,25.95
2024-01-10T06:53:45.047Z,20.63
2024-01-10T06:56:12.300Z,18.23
2024-01-10T06:58:40.320Z,26.23
2024-01-10T07:01:14.171Z,30.73
2024-01-10T07:03:42.109Z,27.10
2024-01-10T07:06:09.352Z,31.45
2024-01-10T07:08:36.438Z,21.75
2024-01-10T07:11:03.821Z,36.22
2024-01-10T07:13:32.586Z,22.00
2024-01-10T07:16:02.897Z,19.02
2024-01-10T07:18:30.588Z,27.00
2024-01-10T07:20:58.508Z,25.58
2024-01-10T07:23:25.715Z,33.45
2024-01-10T07:25:53.311Z,32.97
2024-01-10T07:28:21.008Z,24.75
2024-01-10T07:30:49.076Z,24.10
2024-01-10T07:33:16.796Z,31.65
2024-01-10T07:35:44.930Z,21.75
2024-01-10T07:38:12.043Z,28.58
2024-01-10T07:40:39.316Z,32.45
2024-01-10T07:43:07.117Z,27.67
2024-01-10T07:45:34.666Z,20.42
2024-01-10T07:48:01.854Z,24.00
2024-01-10T07:50:29.413Z,28.40
2024-01-10T07:52:57.546Z,27.75
2024-01-10T07:55:24.689Z,34.45
2024-01-10T07:57:52.738Z,28.60
2024-01-10T08:00:21.617Z,26.95
2024-01-10T08:02:50.738Z,25.52
2024-01-10T08:05:18.100Z,24.02
2024-01-10T08:07:45.258Z,30.13
2024-01-10T08:10:12.369Z,31.08
2024-01-10T08:12:42.728Z,26.35
2024-01-10T08:15:11.545Z,25.55
2024-01-10T08:17:39.053Z,25.85
2024-01-10T08:20:11.877Z,31.98
2024-01-10T08:22:39.760Z,37.38
2024-01-10T08:25:07.231Z,31.55
2024-01-10T08:27:37.117Z,41.55
2024-01-10T08:30:06.035Z,34.75
2024-01-10T08:32:36.276Z,28.77
2024-01-10T08:35:05.958Z,31.48
2024-01-10T08:37:33.495Z,32.65
2024-01-10T08:40:01.967Z,25.15
2024-01-10T08:42:29.411Z,59.15
2024-01-10T08:44:57.069Z,54.10
2024-01-10T08:47:24.388Z,37.25
2024-01-10T08:49:52.138Z,24.02
2024-01-10T08:52:19.527Z,34.72
2024-01-10T08:54:46.572Z,40.15
2024-01-10T08:57:13.918Z,29.75
2024-01-10T08:59:44.933Z,35.35
2024-01-10T09:02:12.044Z,30.27
2024-01-10T09:04:40.345Z,26.27
2024-01-10T09:07:10.420Z,29.95
2024-01-10T09:09:37.546Z,30.10
2024-01-10T09:12:04.931Z,33.30
2024-01-10T09:14:31.996Z,29.35
2024-01-10T09:17:03.236Z,25.45
2024-01-10T09:19:31.722Z,29.70
2024-01-10T09:21:58.969Z,24.75
2024-01-10T09:24:29.967Z,32.08
2024-01-10T09:26:57.816Z,27.98
2024-01-10T09:29:29.651Z,23.48
2024-01-10T09:31:57.608Z,31.65
2024-01-10T09:34:25.049Z,29.67
2024-01-10T09:36:53.159Z,45.55
2024-01-10T09:39:20.315Z,31.67
2024-01-10T09:41:52.877Z,30.77
2024-01-10T09:44:22.640Z,23.30
2024-01-10T09:46:55.140Z,69.25
2024-01-10T09:49:23.191Z,65.88
2024-01-10T09:51:50.867Z,38.63
2024-01-10T09:54:20.660Z,35.10
2024-01-10T09:56:48.388Z,31.50
2024-01-10T09:59:16.540Z,31.10
2024-01-10T10:01:45.161Z,24.20
2024-01-10T10:04:13.573Z,37.65
2024-01-10T10:06:40.846Z,33.28
2024-01-10T10:09:11.492Z,33.97
2024-01-10T10:11:38.593Z,30.17
2024-01-10T10:14:16.340Z,26.92
2024-01-10T10:16:45.027Z,31.55
2024-01-10T10:19:19.172Z,26.17
2024-01-10T10:21:48.639Z,26.38
2024-01-10T10:24:18.598Z,38.58
2024-01-10T10:26:46.705Z,30.05
2024-01-10T10:29:18.016Z,24.15
2024-01-10T10:31:49.074Z,34.17
2024-01-10T10:34:21.995Z,35.17
2024-01-10T10:36:49.822Z,25.13
2024-01-10T10:39:17.915Z,28.92
2024-01-10T10:41:48.407Z,33.20
2024-01-10T10:44:21.896Z,23.75
2024-01-10T10:47:05.807Z,25.67
2024-01-10T10:49:48.359Z,26.77
2024-01-10T10:52:16.433Z,27.80
2024-01-10T10:54:45.640Z,26.80
2024-01-10T10:57:13.037Z,24.00
2024-01-10T10:59:42.789Z,30.10
2024-01-10T11:02:12.078Z,40.75
2024-01-10T11:04:41.396Z,27.27
2024-01-10T11:07:09.197Z,27.30
2024-01-10T11:09:38.912Z,25.80
2024-01-10T11:12:35.322Z,28.17
2024-01-10T11:15:17.440Z,36.10
2024-01-10T11:18:08.961Z,21.45
2024-01-10T11:20:45.697Z,22.90
2024-01-10T11:23:31.416Z,21.27
2024-01-10T11:26:00.135Z,20.70
2024-01-10T11:28:29.853Z,19.88
2024-01-10T11:30:57.921Z,24.27
2024-01-10T11:33:31.681Z,25.27
2024-01-10T11:36:17.484Z,19.35
2024-01-10T11:38:58.818Z,22.95
2024-01-10T11:41:34.337Z,19.92
2024-01-10T11:44:13.927Z,23.42
2024-01-10T11:46:47.715Z,18.05
2024-01-10T11:49:17.410Z,22.25
2024-01-10T11:51:54.110Z,20.70
2024-01-10T11:54:39.336Z,25.42
2024-01-10T11:57:14.434Z,24.13
2024-01-10T11:59:43.215Z,26.17
2024-01-10T12:02:11.155Z,23.00
2024-01-10T12:04:46.263Z,24.73
2024-01-10T12:07:16.699Z,22.20
2024-01-10T12:09:44.254Z,19.20
2024-01-10T12:12:14.199Z,19.83
2024-01-10T12:14:41.839Z,18.08
2024-01-10T12:17:09.434Z,21.90
2024-01-10T12:19:40.455Z,32.22
2024-01-10T12:22:08.673Z,22.70
2024-01-10T12:24:49.200Z,24.25
2024-01-10T12:27:20.987Z,22.10
2024-01-10T12:29:52.708Z,23.33
2024-01-10T12:32:23.482Z,27.30
2024-01-10T12:34:58.948Z,18.70
2024-01-10T12:37:26.065Z,19.73
2024-01-10T12:39:53.314Z,29.63
2024-01-10T12:42:21.448Z,25.65
2024-01-10T12:44:48.962Z,20.77
2024-01-10T12:47:24.903Z,28.50
2024-01-10T12:49:52.600Z,28.35
2024-01-10T12:52:23.462Z,22.02
2024-01-10T12:54:52.561Z,23.27
2024-01-10T12:57:19.577Z,22.58
2024-01-10T12:59:46.626Z,23.73
2024-01-10T13:02:13.810Z,23.95
2024-01-10T13:04:41.044Z,25.17
2024-01-10T13:07:08.135Z,25.50
2024-01-10T13:09:36.747Z,30.52
2024-01-10T13:12:05.538Z,18.73
2024-01-10T13:14:33.087Z,21.65
2024-01-10T13:17:00.937Z,22.67
2024-01-10T13:19:28.358Z,21.60
2024-01-10T13:21:56.360Z,28.23
2024-01-10T13:24:23.619Z,25.45
2024-01-10T13:26:50.765Z,26.88
2024-01-10T13:29:18.048Z,22.20
2024-01-10T13:31:45.319Z,28.80
2024-01-10T13:34:12.951Z,25.55
2024-01-10T13:36:40.500Z,21.00
2024-01-10T13:39:08.213Z,25.52
2024-01-10T13:41:35.521Z,24.13
2024-01-10T13:44:03.113Z,19.33
2024-01-10T13:46:30.364Z,26.02
2024-01-10T13:48:57.494Z,23.20
2024-01-10T13:51:24.692Z,20.77
2024-01-10T13:53:51.841Z,23.75
2024-01-10T13:56:19.021Z,26.42
2024-01-10T13:58:46.194Z,26.23
2024-01-10T14:01:13.363Z,26.35
2024-01-10T14:03:40.843Z,23.05
2024-01-10T14:06:08.226Z,23.27
2024-01-10T14:08:38.502Z,27.50
2024-01-10T14:11:05.569Z,21.50
2024-01-10T14:13:32.642Z,20.42
2024-01-10T14:15:59.776Z,21.80
2024-01-10T14:18:27.010Z,25.38
2024-01-10T14:20:54.162Z,25.92
2024-01-10T14:23:21.681Z,22.10
2024-01-10T14:25:48.979Z,30.42
2024-01-10T14:28:16.060Z,27.55
2024-01-10T14:30:43.141Z,25.88
2024-01-10T14:33:10.912Z,24.52
2024-01-10T14:35:38.372Z,29.98
2024-01-10T14:38:05.637Z,24.88
2024-01-10T14:40:32.819Z,24.40
2024-01-10T14:43:00.168Z,26.08
2024-01-10T14:45:27.243Z,22.40
2024-01-10T14:47:54.617Z,25.83
2024-01-10T14:50:22.766Z,23.10
2024-01-10T14:52:50.556Z,34.70
2024-01-10T14:55:17.640Z,27.70
2024-01-10T14:57:44.691Z,33.85
2024-01-10T15:00:12.214Z,28.60
2024-01-10T15:02:40.044Z,26.45
2024-01-10T15:05:07.827Z,27.45
2024-01-10T15:07:34.930Z,34.92
2024-01-10T15:10:04.183Z,29.95
2024-01-10T15:12:32.203Z,31.40
2024-01-10T15:15:02.516Z,27.58
2024-01-10T15:17:29.816Z,27.40
2024-01-10T15:19:56.968Z,26.67
2024-01-10T15:22:24.094Z,28.00
2024-01-10T15:24:51.188Z,30.27
2024-01-10T15:27:19.694Z,29.55
2024-01-10T15:29:53.047Z,27.48
2024-01-10T15:32:24.093Z,30.80
2024-01-10T15:34:51.746Z,22.80
2024-01-10T15:37:18.856Z,32.65
2024-01-10T15:39:47.423Z,26.83
2024-01-10T15:42:15.316Z,25.42
2024-01-10T15:44:43.998Z,24.60
2024-01-10T15:47:11.202Z,30.63
2024-01-10T15:49:38.445Z,29.20
2024-01-10T15:52:05.601Z,26.02
2024-01-10T15:54:38.494Z,30.30
2024-01-10T15:57:05.981Z,28.98
2024-01-10T15:59:33.986Z,28.25
2024-01-10T16:02:01.373Z,34.55
2024-01-10T16:04:29.458Z,25.85
2024-01-10T16:06:56.655Z,25.65
2024-01-10T16:09:24.874Z,31.30
2024-01-10T16:11:51.965Z,28.92
2024-01-10T16:14:19.159Z,38.60
2024-01-10T16:16:46.333Z,32.72
2024-01-10T16:19:13.886Z,36.00
2024-01-10T16:21:41.371Z,33.17
2024-01-10T16:24:09.271Z,29.98
2024-01-10T16:26:37.395Z,31.55
2024-01-10T16:29:07.749Z,35.42
2024-01-10T16:31:35.044Z,36.92
2024-01-10T16:34:02.243Z,36.72
2024-01-10T16:36:29.408Z,32.55
2024-01-10T16:38:56.686Z,35.67
2024-01-10T16:41:24.384Z,33.40
2024-01-10T16:43:51.538Z,30.35
2024-01-10T16:46:18.882Z,34.90
2024-01-10T16:48:50.417Z,35.03
2024-01-10T16:51:17.547Z,40.90
2024-01-10T16:53:44.559Z,38.60
2024-01-10T16:56:11.718Z,33.63
2024-01-10T16:58:38.757Z,39.95
2024-01-10T17:01:05.832Z,38.67
2024-01-10T17:03:32.995Z,38.15
2024-01-10T17:06:00.521Z,33.63
2024-01-10T17:08:27.717Z,42.63
2024-01-10T17:10:54.792Z,31.83
2024-01-10T17:13:23.432Z,44.30
2024-01-10T17:15:50.562Z,40.92
2024-01-10T17:18:20.453Z,47.00
2024-01-10T17:20:48.092Z,40.88
2024-01-10T17:23:15.474Z,36.03
2024-01-10T17:25:42.694Z,46.72
2024-01-10T17:28:09.813Z,43.33
2024-01-10T17:30:36.928Z,49.45
2024-01-10T17:33:09.593Z,46.35
2024-01-10T17:35:38.144Z,43.72
2024-01-10T17:38:07.311Z,50.78
2024-01-10T17:40:34.507Z,40.63
2024-01-10T17:43:02.781Z,44.90
2024-01-10T17:45:29.797Z,42.53
2024-01-10T17:47:56.985Z,37.45
2024-01-10T17:50:26.193Z,35.92
2024-01-10T17:52:53.612Z,37.40
2024-01-10T17:55:20.669Z,41.10
2024-01-10T17:57:47.713Z,43.63
2024-01-10T18:00:15.436Z,37.25
2024-01-10T18:02:42.623Z,40.00
2024-01-10T18:05:09.878Z,37.30
2024-01-10T18:07:37.613Z,42.90
2024-01-10T18:10:05.193Z,40.88
2024-01-10T18:12:32.338Z,36.78
2024-01-10T18:14:59.421Z,37.30
2024-01-10T18:17:26.563Z,42.03
2024-01-10T18:19:53.786Z,47.05
2024-01-10T18:22:20.829Z,46.35
2024-01-10T18:24:47.916Z,51.70
2024-01-10T18:27:15.078Z,45.90
2024-01-10T18:29:42.123Z,47.42
2024-01-10T18:32:09.244Z,70.07
2024-01-10T18:34:36.338Z,45.22
2024-01-10T18:37:03.585Z,36.15
2024-01-10T18:39:30.749Z,40.40
2024-01-10T18:41:58.151Z,43.72
2024-01-10T18:44:25.995Z,36.03
2024-01-10T18:46:53.204Z,37.13
2024-01-10T18:49:20.420Z,46.08
2024-01-10T18:51:47.650Z,41.80
2024-01-10T18:54:14.694Z,51.28
2024-01-10T18:56:41.865Z,38.30
2024-01-10T18:59:08.980Z,47.75
2024-01-10T19:01:36.152Z,49.47
2024-01-10T19:04:03.369Z,54.13
2024-01-10T19:06:30.818Z,55.70
2024-01-10T19:08:58.091Z,53.30
2024-01-10T19:11:25.677Z,45.95
2024-01-10T19:13:52.893Z,40.33
2024-01-10T19:16:20.107Z,54.85
2024-01-10T19:18:47.284Z,61.63
2024-01-10T19:21:15.308Z,50.67
2024-01-10T19:23:45.892Z,54.20
2024-01-10T19:26:26.129Z,48.17
2024-01-10T19:28:53.542Z,60.63
2024-01-10T19:31:21.041Z,54.65
2024-01-10T19:33:49.355Z,50.55
2024-01-10T19:36:16.674Z,52.53
2024-01-10T19:38:46.141Z,51.22
2024-01-10T19:41:24.046Z,54.47
2024-01-10T19:43:52.057Z,44.80
2024-01-10T19:46:19.823Z,49.60
2024-01-10T19:48:47.977Z,52.75
2024-01-10T19:51:15.547Z,57.05
2024-01-10T19:53:49.066Z,53.15
2024-01-10T19:56:17.683Z,51.38
2024-01-10T19:58:46.153Z,61.78
2024-01-10T20:01:13.758Z,51.65
2024-01-10T20:03:41.037Z,47.10
2024-01-10T20:06:09.075Z,47.38
2024-01-10T20:08:36.400Z,42.40
2024-01-10T20:11:03.730Z,51.00
2024-01-10T20:13:30.841Z,53.05
2024-01-10T20:15:58.086Z,51.75
2024-01-10T20:18:25.362Z,59.35
2024-01-10T20:20:52.479Z,52.58
2024-01-10T20:23:20.729Z,61.55
2024-01-10T20:25:48.933Z,62.50
2024-01-10T20:28:16.693Z,56.88
2024-01-10T20:30:43.832Z,54.97
2024-01-10T20:33:11.022Z,59.00
2024-01-10T20:35:38.523Z,57.28
2024-01-10T20:38:05.647Z,54.75
2024-01-10T20:40:33.803Z,56.00
2024-01-10T20:43:01.533Z,55.58
2024-01-10T20:45:28.712Z,54.30
2024-01-10T20:47:56.101Z,59.63
2024-01-10T20:50:23.261Z,49.97
2024-01-10T20:52:51.121Z,57.30
2024-01-10T20:55:18.188Z,57.65
2024-01-10T20:57:46.749Z,71.85
2024-01-10T21:00:14.398Z,54.28
2024-01-10T21:02:41.709Z,52.35
2024-01-10T21:05:09.442Z,49.05
2024-01-10T21:07:37.897Z,58.20
2024-01-10T21:10:05.342Z,54.47
2024-01-10T21:12:32.406Z,54.53
2024-01-10T21:14:59.704Z,49.83
2024-01-10T21:17:28.039Z,57.63
2024-01-10T21:19:56.470Z,49.80
2024-01-10T21:22:23.761Z,52.95
2024-01-10T21:24:51.925Z,58.20
2024-01-10T21:27:20.010Z,53.10
2024-01-10T21:29:47.130Z,56.40
2024-01-10T21:32:16.310Z,65.00
2024-01-10T21:34:45.102Z,54.90
2024-01-10T21:37:13.481Z,61.17
2024-01-10T21:39:40.595Z,53.95
2024-01-10T21:42:08.622Z,45.65
2024-01-10T21:44:35.868Z,46.53
2024-01-10T21:47:06.700Z,45.67
2024-01-10T21:49:35.287Z,42.60
2024-01-10T21:52:02.503Z,54.40
2024-01-10T21:54:29.708Z,40.92
2024-01-10T21:56:56.861Z,41.38
2024-01-10T21:59:23.972Z,60.80
2024-01-10T22:01:51.467Z,38.08
2024-01-10T22:04:18.645Z,49.95
2024-01-10T22:06:46.248Z,47.03
2024-01-10T22:09:13.420Z,49.20
2024-01-10T22:11:40.631Z,54.35
2024-01-10T22:14:07.737Z,54.10
2024-01-10T22:16:35.509Z,49.13
2024-01-10T22:19:02.626Z,57.90
2024-01-10T22:21:29.737Z,46.33
2024-01-10T22:23:56.829Z,55.35
2024-01-10T22:26:23.884Z,50.28
2024-01-10T22:28:51.642Z,56.60
2024-01-10T22:31:18.798Z,53.67
2024-01-10T22:33:46.178Z,45.78
2024-01-10T22:36:14.783Z,51.78
2024-01-10T22:38:41.805Z,53.63
2024-01-10T22:41:08.932Z,54.45
2024-01-10T22:43:35.986Z,59.13
2024-01-10T22:46:03.163Z,59.47
2024-01-10T22:48:31.288Z,66.25
2024-01-10T22:51:00.308Z,56.80
2024-01-10T22:53:27.765Z,53.80
2024-01-10T22:55:54.890Z,47.50
2024-01-10T22:58:23.416Z,54.50
2024-01-10T23:00:52.683Z,53.28
2024-01-10T23:03:20.530Z,51.22
2024-01-10T23:05:48.373Z,51.00
2024-01-10T23:08:15.532Z,59.33
2024-01-10T23:10:42.679Z,51.13
2024-01-10T23:13:09.854Z,53.05
2024-01-10T23:15:36.938Z,48.95
2024-01-10T23:18:04.405Z,53.72
2024-01-10T23:20:31.965Z,49.33
2024-01-10T23:22:59.028Z,54.10
2024-01-10T23:25:26.534Z,53.05
2024-01-10T23:27:53.592Z,48.22
2024-01-10T23:30:20.686Z,52.47
2024-01-10T23:32:47.995Z,59.03
2024-01-10T23:35:16.044Z,54.05
2024-01-10T23:37:43.222Z,51.80
2024-01-10T23:40:10.764Z,51.38
2024-01-10T23:42:37.860Z,48.83
2024-01-10T23:45:05.557Z,66.20
2024-01-10T23:47:32.713Z,57.08
2024-01-10T23:49:59.885Z,65.43
2024-01-10T23:52:27.264Z,53.17
2024-01-10T23:54:54.378Z,58.05
2024-01-10T23:57:21.946Z,62.03
2024-01-10T23:59:49.022Z,62.10
